Time;durP1;ratioP1;P1;durP2;ratioP2;P2;SDS_P1;SDS_P2;PMS_P1;PMS_P2;Temp;Humidity;BMP_temperature;BMP_pressure;BME280_temperature;BME280_humidity;BME280_pressure;Samples;Min_cycle;Max_cycle;Signal;HPM_P1;HPM_P2
2023/01/07 00:01:12;;;;;;;10.10;6.28;;;;;;;9.72;100.00;101450.44;4971812;28;20626;-70
2023/01/07 00:03:39;;;;;;;9.15;6.00;;;;;;;9.72;100.00;101450.44;4972862;28;20113;-71
2023/01/07 00:06:10;;;;;;;7.60;5.85;;;;;;;9.71;100.00;101454.16;4973850;28;20422;-70
2023/01/07 00:08:38;;;;;;;11.48;6.28;;;;;;;9.71;100.00;101446.06;4974024;28;20119;-70
2023/01/07 00:11:09;;;;;;;10.07;5.68;;;;;;;9.71;100.00;101447.94;4971852;28;20077;-71
2023/01/07 00:13:35;;;;;;;9.13;6.40;;;;;;;9.70;100.00;101447.09;4974279;28;20448;-70
2023/01/07 00:16:03;;;;;;;9.05;6.32;;;;;;;9.70;100.00;101436.28;4973191;28;20038;-71
2023/01/07 00:18:28;;;;;;;6.90;6.22;;;;;;;9.67;100.00;101433.16;4973592;28;20041;-71
2023/01/07 00:20:58;;;;;;;7.50;6.30;;;;;;;9.68;100.00;101442.94;4973680;28;20121;-71
2023/01/07 00:23:24;;;;;;;10.18;6.57;;;;;;;9.67;100.00;101431.28;4973579;28;20093;-71
2023/01/07 00:25:50;;;;;;;9.73;6.88;;;;;;;9.69;100.00;101434.63;4974333;28;20066;-71
2023/01/07 00:28:16;;;;;;;10.48;7.18;;;;;;;9.69;100.00;101433.78;4973396;28;20126;-71
2023/01/07 00:30:41;;;;;;;9.55;7.47;;;;;;;9.69;100.00;101431.06;4972423;28;20069;-71
2023/01/07 00:33:08;;;;;;;8.85;7.28;;;;;;;9.69;100.00;101422.97;4973814;28;20034;-71
2023/01/07 00:35:37;;;;;;;11.50;7.72;;;;;;;9.69;100.00;101426.53;4972749;28;20110;-71
2023/01/07 00:38:03;;;;;;;11.77;7.00;;;;;;;9.67;100.00;101423.19;4973598;28;20099;-71
2023/01/07 00:40:30;;;;;;;11.07;8.02;;;;;;;9.67;100.00;101419.66;4973510;28;20041;-71
2023/01/07 00:43:03;;;;;;;10.45;7.65;;;;;;;9.65;100.00;101419.84;4974604;28;20085;-71
2023/01/07 00:45:32;;;;;;;11.63;7.40;;;;;;;9.65;100.00;101413.63;4972476;28;20035;-71
2023/01/07 00:47:59;;;;;;;10.00;8.25;;;;;;;9.65;100.00;101417.16;4974621;28;20034;-71
2023/01/07 00:50:30;;;;;;;11.90;8.65;;;;;;;9.65;100.00;101414.47;4970612;28;20034;-71
2023/01/07 00:52:56;;;;;;;16.23;8.98;;;;;;;9.66;100.00;101402.63;4973733;28;20041;-71
2023/01/07 00:55:22;;;;;;;13.60;8.27;;;;;;;9.65;100.00;101414.47;4973079;28;20114;-71
2023/01/07 00:57:48;;;;;;;12.70;8.25;;;;;;;9.66;100.00;101401.75;4974127;28;20109;-71
2023/01/07 01:00:16;;;;;;;11.93;8.25;;;;;;;9.66;100.00;101397.22;4972737;28;20092;-71
2023/01/07 01:02:42;;;;;;;9.70;7.78;;;;;;;9.64;100.00;101399.28;4969195;28;20038;-70
2023/01/07 01:05:08;;;;;;;11.32;7.95;;;;;;;9.62;100.00;101395.94;4973142;28;20482;-71
2023/01/07 01:07:34;;;;;;;11.98;7.03;;;;;;;9.61;100.00;101396.16;4969123;28;20038;-71
2023/01/07 01:10:00;;;;;;;10.63;7.07;;;;;;;9.58;100.00;101382.00;4972731;28;20033;-70
2023/01/07 01:12:26;;;;;;;10.77;7.30;;;;;;;9.56;100.00;101377.84;4973217;28;20475;-70
2023/01/07 01:14:52;;;;;;;12.48;6.90;;;;;;;9.55;100.00;101376.19;4972975;28;20046;-71
2023/01/07 01:17:17;;;;;;;11.93;6.85;;;;;;;9.55;100.00;101379.72;4971470;28;20548;-71
2023/01/07 01:19:43;;;;;;;10.68;6.60;;;;;;;9.55;100.00;101365.38;4972817;28;20030;-71
2023/01/07 01:22:08;;;;;;;11.07;6.70;;;;;;;9.54;100.00;101369.97;4972809;28;20488;-71
2023/01/07 01:24:33;;;;;;;11.20;6.45;;;;;;;9.54;100.00;101361.84;4971232;28;20034;-70
2023/01/07 01:26:59;;;;;;;8.68;6.45;;;;;;;9.53;100.00;101364.75;4970473;28;20085;-71
2023/01/07 01:29:24;;;;;;;10.20;6.20;;;;;;;9.51;100.00;101358.72;4973149;28;20471;-71
2023/01/07 01:31:49;;;;;;;9.82;6.28;;;;;;;9.51;100.00;101356.00;4970845;28;20034;-71
2023/01/07 01:34:15;;;;;;;9.25;6.40;;;;;;;9.51;100.00;101356.00;4972235;28;20045;-70
2023/01/07 01:36:40;;;;;;;9.02;6.25;;;;;;;9.50;100.00;101357.06;4973626;28;20403;-70
2023/01/07 01:39:06;;;;;;;8.35;6.03;;;;;;;9.50;100.00;101357.88;4972372;28;20043;-70
2023/01/07 01:41:31;;;;;;;10.40;6.10;;;;;;;9.52;100.00;101357.69;4971353;28;20034;-70
2023/01/07 01:43:57;;;;;;;12.38;6.32;;;;;;;9.49;100.00;101352.69;4971553;28;20042;-71
2023/01/07 01:46:39;;;;;;;10.88;6.32;;;;;;;9.50;100.00;101365.19;4971855;28;20443;-71
2023/01/07 01:49:25;;;;;;;6.75;5.88;;;;;;;9.48;100.00;101361.81;4966641;28;20039;-71
2023/01/07 01:52:00;;;;;;;8.40;6.25;;;;;;;9.49;100.00;101360.81;4973618;28;20057;-70
2023/01/07 01:54:27;;;;;;;13.48;6.00;;;;;;;9.50;100.00;101357.06;4972634;28;20035;-71
2023/01/07 01:56:55;;;;;;;10.45;5.70;;;;;;;9.49;100.00;101360.81;4971579;28;20050;-70
2023/01/07 01:59:25;;;;;;;8.77;5.78;;;;;;;9.46;100.00;101364.72;4972572;28;20046;-71
2023/01/07 02:01:51;;;;;;;7.80;5.78;;;;;;;9.47;100.00;101354.78;4964780;28;20039;-70
2023/01/07 02:04:19;;;;;;;12.68;5.80;;;;;;;9.47;100.00;101365.59;4970759;28;20489;-71
2023/01/07 02:07:01;;;;;;;10.85;5.70;;;;;;;9.48;100.00;101356.44;4971498;28;20027;-71
2023/01/07 02:09:27;;;;;;;7.72;5.55;;;;;;;9.44;100.00;101363.28;4971718;28;20031;-70
2023/01/07 02:12:07;;;;;;;10.82;5.95;;;;;;;9.42;100.00;101354.53;4966368;28;20031;-70
2023/01/07 02:15:01;;;;;;;8.55;5.57;;;;;;;9.45;100.00;101360.38;4958692;28;20038;-70
2023/01/07 02:17:48;;;;;;;11.65;5.82;;;;;;;9.46;100.00;101353.94;4972364;28;20034;-70
2023/01/07 02:20:38;;;;;;;7.88;5.47;;;;;;;9.45;100.00;101356.84;4970856;28;20429;-71
2023/01/07 02:23:09;;;;;;;8.18;5.40;;;;;;;9.40;100.00;101363.72;4972676;28;20041;-71
2023/01/07 02:26:00;;;;;;;8.02;5.22;;;;;;;9.44;100.00;101349.78;4972492;28;20410;-70
2023/01/07 02:29:07;;;;;;;8.55;4.97;;;;;;;9.40;100.00;101358.31;4959330;28;20026;-70
2023/01/07 02:32:07;;;;;;;8.38;5.13;;;;;;;9.42;100.00;101359.94;4970476;28;20546;-71
2023/01/07 02:34:53;;;;;;;9.98;5.25;;;;;;;9.39;100.00;101353.06;4975106;28;20030;-70
2023/01/07 02:37:25;;;;;;;8.00;4.47;;;;;;;9.33;100.00;101362.84;4969301;28;20033;-71
2023/01/07 02:40:37;;;;;;;7.43;5.30;;;;;;;9.35;100.00;101347.25;4976253;28;20034;-71
2023/01/07 02:43:28;;;;;;;9.05;5.18;;;;;;;9.35;100.00;101347.25;4900343;29;20492;-71
2023/01/07 02:46:20;;;;;;;5.93;4.82;;;;;;;9.36;100.00;101345.38;4915944;29;20084;-71
2023/01/07 02:48:46;;;;;;;8.13;4.88;;;;;;;9.33;100.00;101337.69;4974822;28;20042;-70
2023/01/07 02:51:12;;;;;;;5.68;4.40;;;;;;;9.30;100.00;101344.34;4975715;28;20585;-70
2023/01/07 02:53:40;;;;;;;9.15;5.20;;;;;;;9.30;100.00;101333.56;4975273;28;20064;-70
2023/01/07 02:56:28;;;;;;;9.80;4.63;;;;;;;9.33;100.00;101341.25;4974591;28;20030;-71
2023/01/07 02:59:02;;;;;;;7.30;4.60;;;;;;;9.36;100.00;101332.72;4976013;28;20058;-71
2023/01/07 03:01:39;;;;;;;7.15;4.53;;;;;;;9.39;100.00;101335.03;4972992;28;20039;-71
2023/01/07 03:04:31;;;;;;;8.38;4.47;;;;;;;9.43;100.00;101334.59;4972570;28;20097;-70
2023/01/07 03:07:08;;;;;;;7.68;4.25;;;;;;;9.45;100.00;101324.41;4973487;28;20023;-71
2023/01/07 03:10:15;;;;;;;10.05;4.60;;;;;;;9.49;100.00;101328.38;4975369;28;20122;-70
2023/01/07 03:13:05;;;;;;;6.25;4.18;;;;;;;9.48;100.00;101316.75;4963060;28;20046;-71
2023/01/07 03:15:40;;;;;;;5.38;3.83;;;;;;;9.50;100.00;101311.16;4975165;28;20086;-71
2023/01/07 03:18:10;;;;;;;9.00;4.10;;;;;;;9.49;100.00;101312.16;4957873;28;20035;-70
2023/01/07 03:20:38;;;;;;;6.43;3.83;;;;;;;9.52;100.00;101306.34;4969603;28;20050;-70
2023/01/07 03:23:07;;;;;;;6.05;3.90;;;;;;;9.52;100.00;101304.47;4974427;28;20041;-71
2023/01/07 03:25:36;;;;;;;5.05;3.78;;;;;;;9.54;100.00;101296.16;4974214;28;20090;-71
2023/01/07 03:28:05;;;;;;;7.53;3.90;;;;;;;9.53;100.00;101302.63;4974066;28;20050;-71
2023/01/07 03:30:30;;;;;;;7.10;3.75;;;;;;;9.54;100.00;101293.47;4975197;28;20034;-71
2023/01/07 03:33:03;;;;;;;8.23;3.72;;;;;;;9.55;100.00;101295.94;4974686;28;20074;-71
2023/01/07 03:35:31;;;;;;;4.72;3.72;;;;;;;9.55;100.00;101289.72;4975198;28;20069;-70
2023/01/07 03:38:00;;;;;;;6.40;3.83;;;;;;;9.54;100.00;101290.75;4974089;28;20046;-71
2023/01/07 03:40:26;;;;;;;5.63;3.40;;;;;;;9.58;100.00;101298.25;4974835;28;20038;-71
2023/01/07 03:42:52;;;;;;;5.82;3.65;;;;;;;9.55;100.00;101292.44;4974156;28;20050;-70
2023/01/07 03:45:21;;;;;;;6.05;3.38;;;;;;;9.56;100.00;101286.00;4973535;28;20039;-70
2023/01/07 03:47:48;;;;;;;7.10;3.90;;;;;;;9.57;100.00;101285.78;4973250;28;20046;-71
2023/01/07 03:50:16;;;;;;;7.00;3.30;;;;;;;9.54;100.00;101274.53;4974678;28;20030;-70
2023/01/07 03:52:41;;;;;;;7.70;3.50;;;;;;;9.59;100.00;101272.06;4974730;28;20129;-71
2023/01/07 03:55:07;;;;;;;4.35;3.33;;;;;;;9.56;100.00;101278.72;4974664;28;20494;-71
2023/01/07 03:57:33;;;;;;;6.00;3.50;;;;;;;9.59;100.00;101272.06;4974137;28;20035;-71
2023/01/07 03:59:58;;;;;;;4.95;3.60;;;;;;;9.61;100.00;101275.38;4973294;28;20437;-71
2023/01/07 04:02:24;;;;;;;4.50;3.40;;;;;;;9.58;100.00;101268.50;4968861;28;20038;-70
2023/01/07 04:04:50;;;;;;;6.78;3.33;;;;;;;9.58;100.00;101259.59;4972904;28;20039;-71
2023/01/07 04:07:15;;;;;;;8.95;3.72;;;;;;;9.60;100.00;101265.59;4973774;28;20030;-71
2023/01/07 04:09:41;;;;;;;7.22;3.58;;;;;;;9.60;100.00;101262.91;4973085;28;20514;-71
2023/01/07 04:12:06;;;;;;;6.25;3.38;;;;;;;9.60;100.00;101257.50;4974571;28;20119;-71
2023/01/07 04:14:32;;;;;;;5.40;3.72;;;;;;;9.62;100.00;101249.19;4972596;28;20062;-71
2023/01/07 04:16:57;;;;;;;5.15;2.90;;;;;;;9.62;100.00;101243.78;4973339;28;20134;-71
2023/01/07 04:19:22;;;;;;;3.30;2.97;;;;;;;9.61;100.00;101240.25;4974677;28;20105;-70
2023/01/07 04:21:48;;;;;;;6.85;3.08;;;;;;;9.62;100.00;101232.97;4971778;28;20046;-70
2023/01/07 04:24:13;;;;;;;5.20;3.22;;;;;;;9.58;100.00;101233.41;4974414;28;20058;-70
2023/01/07 04:26:38;;;;;;;5.95;3.20;;;;;;;9.59;100.00;101226.13;4972700;28;20050;-71
2023/01/07 04:29:04;;;;;;;7.13;3.42;;;;;;;9.58;100.00;101225.28;4973405;28;20038;-71
2023/01/07 04:31:29;;;;;;;5.00;3.38;;;;;;;9.56;100.00;101218.44;4973311;28;20081;-71
2023/01/07 04:33:54;;;;;;;3.35;2.85;;;;;;;9.57;100.00;101223.66;4973188;28;20034;-71
2023/01/07 04:36:19;;;;;;;4.90;3.10;;;;;;;9.52;100.00;101222.59;4974903;28;20140;-71
2023/01/07 04:38:45;;;;;;;5.13;2.88;;;;;;;9.53;100.00;101218.88;4973411;28;20031;-70
2023/01/07 04:41:10;;;;;;;5.50;2.75;;;;;;;9.49;100.00;101212.22;4973135;28;20475;-71
2023/01/07 04:43:36;;;;;;;6.88;3.08;;;;;;;9.50;100.00;101212.00;4974054;28;20109;-70
2023/01/07 04:46:02;;;;;;;4.82;2.83;;;;;;;9.48;100.00;101206.00;4972560;28;20043;-71
2023/01/07 04:48:28;;;;;;;5.57;3.22;;;;;;;9.45;100.00;101210.97;4974706;28;20478;-71
2023/01/07 04:50:53;;;;;;;4.78;3.03;;;;;;;9.44;100.00;101199.34;4971798;28;20031;-70
2023/01/07 04:53:18;;;;;;;5.82;2.72;;;;;;;9.43;100.00;101197.66;4974462;28;20027;-70
2023/01/07 04:55:44;;;;;;;3.70;2.70;;;;;;;9.44;100.00;101198.53;4972775;28;20114;-71
2023/01/07 04:58:09;;;;;;;4.85;3.10;;;;;;;9.41;100.00;101197.06;4973724;28;20118;-70
2023/01/07 05:00:34;;;;;;;7.25;2.97;;;;;;;9.42;100.00;101195.19;4968823;28;20061;-71
2023/01/07 05:03:00;;;;;;;8.85;3.15;;;;;;;9.43;100.00;101191.44;4973660;28;20039;-71
2023/01/07 05:05:25;;;;;;;4.80;2.60;;;;;;;9.42;100.00;101192.47;4972577;28;20035;-71
2023/01/07 05:07:51;;;;;;;4.90;3.00;;;;;;;9.42;100.00;101187.06;4971245;28;20480;-70
2023/01/07 05:10:16;;;;;;;6.05;2.78;;;;;;;9.39;100.00;101197.25;4971316;28;20041;-71
2023/01/07 05:12:41;;;;;;;4.28;2.80;;;;;;;9.39;100.00;101191.00;4973560;28;20034;-71
2023/01/07 05:15:07;;;;;;;6.07;2.88;;;;;;;9.36;100.00;101184.19;4973320;28;20030;-71
2023/01/07 05:17:32;;;;;;;5.80;2.50;;;;;;;9.36;100.00;101189.59;4973585;28;20462;-71
2023/01/07 05:19:58;;;;;;;5.80;2.78;;;;;;;9.37;100.00;101183.13;4973035;28;20031;-71
2023/01/07 05:22:23;;;;;;;6.50;2.72;;;;;;;9.35;100.00;101179.81;4973448;28;20035;-71
2023/01/07 05:24:48;;;;;;;4.22;2.33;;;;;;;9.33;100.00;101179.19;4975639;28;20062;-70
2023/01/07 05:27:14;;;;;;;3.60;2.72;;;;;;;9.30;100.00;101174.22;4973849;28;20058;-70
2023/01/07 05:29:39;;;;;;;4.93;2.47;;;;;;;9.29;100.00;101174.41;4971318;28;20459;-70
2023/01/07 05:32:04;;;;;;;4.95;2.65;;;;;;;9.30;100.00;101176.91;4972279;28;20481;-70
2023/01/07 05:34:30;;;;;;;5.90;2.58;;;;;;;9.28;100.00;101170.88;4972286;28;20033;-70
2023/01/07 05:36:55;;;;;;;6.00;2.78;;;;;;;9.27;100.00;101171.94;4973656;28;20038;-71
2023/01/07 05:39:20;;;;;;;3.65;2.38;;;;;;;9.28;100.00;101168.16;4973255;28;20562;-71
2023/01/07 05:41:46;;;;;;;3.85;2.60;;;;;;;9.27;100.00;101180.03;4971373;28;20509;-77
2023/01/07 05:44:11;;;;;;;4.68;2.45;;;;;;;9.30;100.00;101176.91;4971577;28;20031;-72
2023/01/07 05:46:36;;;;;;;3.85;2.40;;;;;;;9.33;100.00;101179.19;4971644;28;20125;-77
2023/01/07 05:49:02;;;;;;;7.25;2.50;;;;;;;9.35;100.00;101168.19;4970568;28;20030;-75
2023/01/07 05:51:27;;;;;;;6.78;2.33;;;;;;;9.34;100.00;101161.09;4970256;28;20058;-73
2023/01/07 05:53:52;;;;;;;4.90;2.35;;;;;;;9.36;100.00;101170.69;4970238;28;20050;-72
2023/01/07 05:56:18;;;;;;;5.00;2.15;;;;;;;9.37;100.00;101169.63;4972852;28;20027;-70
2023/01/07 05:58:43;;;;;;;3.25;2.10;;;;;;;9.39;100.00;101164.84;4971690;28;20421;-70
2023/01/07 06:01:08;;;;;;;4.97;2.20;;;;;;;9.40;100.00;101165.66;4969906;28;20046;-70
2023/01/07 06:03:34;;;;;;;5.28;2.20;;;;;;;9.40;100.00;101163.81;4971299;28;20475;-71
2023/01/07 06:06:05;;;;;;;4.32;2.13;;;;;;;9.42;100.00;101160.06;4970891;28;20548;-71
2023/01/07 06:08:40;;;;;;;3.90;2.03;;;;;;;9.40;100.00;101155.72;4974226;28;20482;-71
2023/01/07 06:11:07;;;;;;;4.75;2.10;;;;;;;9.40;100.00;101155.72;4975134;28;20581;-71
2023/01/07 06:13:33;;;;;;;4.90;2.20;;;;;;;9.43;100.00;101156.31;4974220;28;20070;-70
2023/01/07 06:16:03;;;;;;;3.35;1.88;;;;;;;9.44;100.00;101155.31;4975241;28;20042;-71
2023/01/07 06:18:29;;;;;;;2.90;2.10;;;;;;;9.43;100.00;101142.81;4975292;28;20073;-71
2023/01/07 06:20:54;;;;;;;3.35;1.92;;;;;;;9.43;100.00;101143.66;4975798;28;20035;-71
2023/01/07 06:23:19;;;;;;;5.35;2.25;;;;;;;9.42;100.00;101141.16;4975451;28;20046;-71
2023/01/07 06:25:45;;;;;;;2.22;1.50;;;;;;;9.41;100.00;101137.63;4974734;28;20062;-71
2023/01/07 06:28:10;;;;;;;5.13;1.90;;;;;;;9.43;100.00;101138.25;4975227;28;20038;-71
2023/01/07 06:30:35;;;;;;;2.28;1.90;;;;;;;9.41;100.00;101134.94;4973687;28;20038;-70
2023/01/07 06:33:00;;;;;;;5.47;1.92;;;;;;;9.42;100.00;101120.41;4975883;28;20538;-71
2023/01/07 06:35:26;;;;;;;2.72;1.73;;;;;;;9.43;100.00;101123.91;4975028;28;20026;-71
2023/01/07 06:37:51;;;;;;;1.60;1.50;;;;;;;9.44;100.00;101120.19;4975523;28;20026;-71
2023/01/07 06:40:17;;;;;;;2.90;1.65;;;;;;;9.44;100.00;101122.88;4974093;28;20364;-71
2023/01/07 06:42:42;;;;;;;3.28;1.67;;;;;;;9.43;100.00;101122.03;4974190;28;20418;-71
2023/01/07 06:45:10;;;;;;;2.55;1.50;;;;;;;9.44;100.00;101120.19;4973958;28;20030;-71
2023/01/07 06:47:35;;;;;;;3.72;1.77;;;;;;;9.43;100.00;101118.50;4939391;28;1051148;-71
2023/01/07 06:50:01;;;;;;;5.80;1.80;;;;;;;9.42;100.00;101119.53;4974175;28;20039;-71
2023/01/07 06:52:26;;;;;;;2.08;1.50;;;;;;;9.42;100.00;101117.69;4974836;28;20118;-71
2023/01/07 06:54:51;;;;;;;3.72;1.83;;;;;;;9.42;100.00;101116.84;4975415;28;20055;-71
2023/01/07 06:57:16;;;;;;;2.30;1.60;;;;;;;9.45;100.00;101113.72;4975352;28;20038;-71
2023/01/07 06:59:42;;;;;;;1.40;1.23;;;;;;;9.44;100.00;101114.78;4975767;28;20035;-71
2023/01/07 07:02:16;;;;;;;2.08;1.60;;;;;;;9.42;100.00;101114.13;4972658;28;20105;-70
2023/01/07 07:04:41;;;;;;;2.10;1.60;;;;;;;9.44;100.00;101106.69;4974552;28;20073;-71
2023/01/07 07:07:06;;;;;;;1.52;1.40;;;;;;;9.43;100.00;101105.81;4975176;28;20117;-71
2023/01/07 07:09:31;;;;;;;2.50;1.42;;;;;;;9.42;100.00;101097.94;4974833;28;20046;-71
2023/01/07 07:11:57;;;;;;;4.78;1.40;;;;;;;9.42;100.00;101103.34;4975472;28;20078;-70
2023/01/07 07:14:22;;;;;;;4.63;1.60;;;;;;;9.40;100.00;101096.28;4975150;28;20050;-71
2023/01/07 07:16:48;;;;;;;5.72;1.52;;;;;;;9.40;100.00;101085.50;4973276;28;20073;-71
2023/01/07 07:19:13;;;;;;;2.72;1.70;;;;;;;9.39;100.00;101086.53;4974397;28;20034;-71
2023/01/07 07:21:39;;;;;;;5.13;1.60;;;;;;;9.37;100.00;101090.47;4975061;28;20030;-71
2023/01/07 07:24:04;;;;;;;1.88;1.65;;;;;;;9.38;100.00;101081.34;4974367;28;20027;-73
2023/01/07 07:26:29;;;;;;;1.23;1.13;;;;;;;9.37;100.00;101083.19;4971585;28;20075;-72
2023/01/07 07:28:55;;;;;;;1.83;1.27;;;;;;;9.37;100.00;101082.38;4969690;28;20031;-72
2023/01/07 07:31:20;;;;;;;1.63;1.35;;;;;;;9.36;100.00;101078.84;4972460;28;20035;-71
2023/01/07 07:33:45;;;;;;;2.92;1.42;;;;;;;9.35;100.00;101082.56;4956499;28;20031;-72
2023/01/07 07:36:10;;;;;;;2.63;1.50;;;;;;;9.34;100.00;101071.97;4958386;28;20037;-72
2023/01/07 07:38:36;;;;;;;3.53;1.45;;;;;;;9.36;100.00;101080.69;4974627;28;20057;-72
2023/01/07 07:41:01;;;;;;;3.25;1.58;;;;;;;9.33;100.00;101073.88;4975525;28;20041;-72
2023/01/07 07:43:26;;;;;;;3.10;1.67;;;;;;;9.32;100.00;101076.78;4974597;28;20118;-72
2023/01/07 07:45:52;;;;;;;1.67;1.52;;;;;;;9.33;100.00;101067.63;4973929;28;20055;-72
2023/01/07 07:48:20;;;;;;;1.42;1.10;;;;;;;9.30;100.00;101068.88;4975892;28;20126;-71
2023/01/07 07:50:50;;;;;;;1.63;1.30;;;;;;;9.31;100.00;101057.03;4974794;28;20052;-73
2023/01/07 07:53:15;;;;;;;3.85;1.48;;;;;;;9.32;100.00;101058.69;4975049;28;20592;-71
2023/01/07 07:55:41;;;;;;;2.28;1.50;;;;;;;9.31;100.00;101054.31;4974713;28;20034;-73
2023/01/07 07:58:06;;;;;;;3.17;1.70;;;;;;;9.32;100.00;101055.16;4975379;28;20466;-72
2023/01/07 08:00:31;;;;;;;2.72;1.58;;;;;;;9.32;100.00;101057.88;4973031;28;20031;-73
2023/01/07 08:02:58;;;;;;;2.13;1.50;;;;;;;9.30;100.00;101055.38;4975671;28;20027;-73
2023/01/07 08:05:23;;;;;;;2.42;1.48;;;;;;;9.30;100.00;101041.88;4974464;28;20109;-73
2023/01/07 08:07:49;;;;;;;3.33;1.67;;;;;;;9.32;100.00;101039.78;4975221;28;20126;-73
2023/01/07 08:10:14;;;;;;;3.00;1.50;;;;;;;9.33;100.00;101046.84;4975259;28;20455;-74
2023/01/07 08:12:39;;;;;;;2.65;1.50;;;;;;;9.29;100.00;101036.69;4974664;28;20031;-73
2023/01/07 08:15:06;;;;;;;1.60;1.50;;;;;;;9.31;100.00;101032.72;4973810;28;20034;-73
2023/01/07 08:17:32;;;;;;;1.58;1.42;;;;;;;9.36;100.00;101041.03;4972732;28;20087;-73
2023/01/07 08:19:57;;;;;;;1.90;1.70;;;;;;;9.36;100.00;101035.63;4974338;28;20118;-73
2023/01/07 08:22:23;;;;;;;2.28;1.40;;;;;;;9.38;100.00;101036.25;4975121;28;20050;-73
2023/01/07 08:24:48;;;;;;;1.98;1.30;;;;;;;9.43;100.00;101034.78;4972028;28;20110;-73
2023/01/07 08:27:13;;;;;;;2.38;1.60;;;;;;;9.44;100.00;101034.56;4972951;28;20038;-73
2023/01/07 08:29:38;;;;;;;2.33;1.30;;;;;;;9.45;100.00;101035.38;4974158;28;20034;-73
2023/01/07 08:32:04;;;;;;;2.55;1.23;;;;;;;9.48;100.00;101026.84;4973964;28;20035;-72
2023/01/07 08:34:29;;;;;;;1.77;1.30;;;;;;;9.50;100.00;101028.31;4974763;28;20435;-73
2023/01/07 08:36:55;;;;;;;2.28;1.30;;;;;;;9.52;100.00;101028.09;4972895;28;20019;-74
2023/01/07 08:39:20;;;;;;;1.50;1.20;;;;;;;9.53;100.00;101027.06;4968132;28;20031;-74
2023/01/07 08:41:45;;;;;;;2.22;1.40;;;;;;;9.58;100.00;101025.34;4975092;28;20033;-74
2023/01/07 08:44:10;;;;;;;1.30;1.20;;;;;;;9.59;100.00;101015.41;4974214;28;20054;-75
2023/01/07 08:46:36;;;;;;;2.90;1.70;;;;;;;9.60;100.00;101022.44;4973678;28;20093;-74
2023/01/07 08:49:01;;;;;;;1.92;1.20;;;;;;;9.61;100.00;101012.47;4974497;28;20467;-74
2023/01/07 08:51:26;;;;;;;1.83;1.40;;;;;;;9.62;100.00;101009.56;4974709;28;20038;-73
2023/01/07 08:53:53;;;;;;;2.05;1.35;;;;;;;9.66;100.00;101013.50;4974267;28;20033;-73
2023/01/07 08:56:18;;;;;;;3.92;1.30;;;;;;;9.67;100.00;101004.31;4972325;28;20034;-73
2023/01/07 08:58:44;;;;;;;3.00;1.10;;;;;;;9.70;100.00;101017.41;4974512;28;20120;-76
2023/01/07 09:01:09;;;;;;;1.83;1.30;;;;;;;9.73;100.00;101016.97;4972453;28;20031;-76
2023/01/07 09:03:34;;;;;;;3.33;1.27;;;;;;;9.73;100.00;101014.28;4974505;28;20113;-76
2023/01/07 09:06:00;;;;;;;2.95;1.40;;;;;;;9.75;100.00;101009.50;4974060;28;20110;-76
2023/01/07 09:08:25;;;;;;;2.67;1.23;;;;;;;9.75;100.00;101000.53;4972597;28;20089;-76
2023/01/07 09:10:50;;;;;;;3.30;1.40;;;;;;;9.78;100.00;101002.00;4973154;28;20039;-76
2023/01/07 09:13:16;;;;;;;2.53;1.40;;;;;;;9.75;100.00;101001.41;4974224;28;20054;-76
2023/01/07 09:15:41;;;;;;;1.45;1.30;;;;;;;9.78;100.00;100999.28;4972894;28;20023;-75
2023/01/07 09:18:06;;;;;;;1.38;1.20;;;;;;;9.81;100.00;100990.75;4973985;28;20034;-76
2023/01/07 09:20:32;;;;;;;1.80;1.35;;;;;;;9.81;100.00;100986.16;4974114;28;20043;-77
2023/01/07 09:22:57;;;;;;;1.20;1.10;;;;;;;9.82;100.00;100989.72;4974123;28;20055;-73
2023/01/07 09:25:23;;;;;;;2.10;1.20;;;;;;;9.81;100.00;100994.28;4972298;28;20027;-76
2023/01/07 09:27:49;;;;;;;2.33;1.40;;;;;;;9.82;100.00;100984.31;4973056;28;20097;-75
2023/01/07 09:30:15;;;;;;;1.77;1.23;;;;;;;9.84;100.00;100988.44;4971747;28;20056;-71
2023/01/07 09:32:43;;;;;;;1.65;1.17;;;;;;;9.86;100.00;100980.97;4974251;28;20046;-74
2023/01/07 09:35:09;;;;;;;1.65;1.10;;;;;;;9.91;100.00;100978.41;4973754;28;20026;-74
2023/01/07 09:37:35;;;;;;;1.95;1.17;;;;;;;9.94;100.00;100972.56;4974049;28;20039;-75
2023/01/07 09:40:00;;;;;;;2.80;1.05;;;;;;;9.97;100.00;100975.91;4971772;28;20359;-74
2023/01/07 09:42:44;;;;;;;1.42;1.10;;;;;;;10.01;100.00;100967.16;4960907;28;20054;-73
2023/01/07 09:45:17;;;;;;;1.27;1.00;;;;;;;9.99;100.00;100963.81;4954288;28;20086;-75
2023/01/07 09:47:47;;;;;;;1.90;1.23;;;;;;;10.02;100.00;100967.97;4953862;28;20434;-75
2023/01/07 09:50:20;;;;;;;2.00;0.80;;;;;;;10.06;100.00;100958.38;4954220;28;20458;-74
2023/01/07 09:52:50;;;;;;;1.55;1.10;;;;;;;10.08;100.00;100957.13;4966299;28;20113;-74
2023/01/07 09:55:24;;;;;;;0.93;0.93;;;;;;;10.11;100.00;100947.72;4972711;28;20034;-74
2023/01/07 09:57:50;;;;;;;1.77;1.10;;;;;;;10.12;100.00;100941.28;4973940;28;20034;-74
2023/01/07 10:00:21;;;;;;;2.30;1.00;;;;;;;10.15;100.00;100937.31;4973431;28;20085;-74
2023/01/07 10:03:35;;;;;;;1.50;0.95;;;;;;;10.21;100.00;100933.72;4972812;28;20038;-75
2023/01/07 10:06:12;;;;;;;3.03;1.20;;;;;;;10.25;100.00;100934.91;4953830;28;20039;-74
2023/01/07 10:08:49;;;;;;;1.98;1.40;;;;;;;10.27;100.00;100935.53;4973899;28;20026;-75
2023/01/07 10:11:39;;;;;;;1.95;1.30;;;;;;;10.29;100.00;100928.03;4971619;28;20035;-75
2023/01/07 10:14:28;;;;;;;1.20;1.10;;;;;;;10.27;100.00;100919.31;4971569;28;20028;-75
2023/01/07 10:17:05;;;;;;;1.75;1.20;;;;;;;10.29;100.00;100909.09;4973541;28;20041;-73
2023/01/07 10:19:51;;;;;;;1.23;1.10;;;;;;;10.32;100.00;100897.00;4971984;28;20062;-75
2023/01/07 10:22:31;;;;;;;1.20;1.10;;;;;;;10.29;100.00;100892.84;4972097;28;20081;-74
2023/01/07 10:25:10;;;;;;;2.30;1.38;;;;;;;10.32;100.00;100886.19;4973208;28;20030;-75
2023/01/07 10:27:41;;;;;;;1.85;1.20;;;;;;;10.32;100.00;100886.19;4970668;28;20039;-72
2023/01/07 10:30:14;;;;;;;1.73;1.10;;;;;;;10.36;100.00;100888.25;4957474;28;20379;-72
2023/01/07 10:32:40;;;;;;;5.78;1.38;;;;;;;10.37;100.00;100867.44;4957322;28;20026;-72
2023/01/07 10:35:13;;;;;;;1.20;1.10;;;;;;;10.43;100.00;100877.34;4973115;28;20034;-72
2023/01/07 10:37:40;;;;;;;3.53;1.42;;;;;;;10.43;100.00;100859.28;4971229;28;20474;-72
2023/01/07 10:40:11;;;;;;;1.25;1.15;;;;;;;10.48;97.59;100868.56;4972630;28;20030;-72
2023/01/07 10:42:56;;;;;;;1.27;1.17;;;;;;;10.48;100.00;100855.03;4973294;28;20069;-72
2023/01/07 10:45:43;;;;;;;1.25;1.15;;;;;;;10.52;99.64;100853.56;4971196;28;20061;-74
2023/01/07 10:48:21;;;;;;;2.20;1.23;;;;;;;10.53;98.79;100849.81;4973044;28;20023;-71
2023/01/07 10:51:07;;;;;;;2.30;1.08;;;;;;;10.53;95.02;100844.41;4973123;28;20027;-72
2023/01/07 10:54:21;;;;;;;4.38;1.17;;;;;;;10.56;100.00;100836.63;4974025;28;20038;-73
2023/01/07 10:56:53;;;;;;;2.42;1.10;;;;;;;10.55;94.04;100820.63;4967166;28;20054;-72
2023/01/07 10:59:20;;;;;;;;;;;;;;;10.66;100.00;100825.31;4974383;28;20483;-72
2023/01/07 11:01:57;;;;;;;2.33;1.08;;;;;;;10.64;95.04;100813.84;4973470;28;19910;-74
2023/01/07 11:04:23;;;;;;;1.13;1.02;;;;;;;10.64;89.75;100811.16;4974777;28;20118;-73
2023/01/07 11:06:53;;;;;;;2.28;1.10;;;;;;;10.63;92.20;100821.16;4976342;28;20038;-73
2023/01/07 11:09:24;;;;;;;1.75;1.40;;;;;;;10.64;90.25;100814.72;4976225;28;20030;-72
2023/01/07 11:11:50;;;;;;;1.75;0.95;;;;;;;10.59;86.94;100811.84;4976349;28;20042;-73
2023/01/07 11:14:21;;;;;;;2.72;1.30;;;;;;;10.59;88.92;100816.44;4974933;28;20026;-72
2023/01/07 11:16:53;;;;;;;1.20;1.02;;;;;;;10.61;84.43;100803.50;4973247;28;20037;-74
2023/01/07 11:19:18;;;;;;;0.93;0.80;;;;;;;10.62;87.35;100803.25;4975804;28;20065;-74
2023/01/07 11:21:47;;;;;;;3.28;1.33;;;;;;;10.63;88.42;100802.22;4976524;28;20115;-72
2023/01/07 11:24:18;;;;;;;1.20;1.10;;;;;;;10.62;86.27;100795.16;4975733;28;20387;-72
2023/01/07 11:26:44;;;;;;;1.08;0.98;;;;;;;10.63;85.47;100790.56;4976225;28;20034;-72
2023/01/07 11:29:28;;;;;;;1.85;1.10;;;;;;;10.65;90.02;100774.94;4976000;28;20026;-72
2023/01/07 11:31:56;;;;;;;1.20;1.02;;;;;;;10.63;84.88;100774.34;4974287;28;20042;-73
2023/01/07 11:34:47;;;;;;;1.45;1.35;;;;;;;10.66;88.07;100773.03;4975327;28;20106;-73